Time;durP1;ratioP1;P1;durP2;ratioP2;P2;SDS_P1;SDS_P2;PMS_P1;PMS_P2;Temp;Humidity;BMP_temperature;BMP_pressure;BME280_temperature;BME280_humidity;BME280_pressure;Samples;Min_cycle;Max_cycle;Signal;HPM_P1;HPM_P2
2024/04/14 00:02:01;;;;;;;;;;;;;;;5.89;100.00;100151.81;5327992;26;19930;-81
2024/04/14 00:04:26;;;;;;;;;;;;;;;5.87;100.00;100158.88;5299109;26;19938;-86
2024/04/14 00:06:52;;;;;;;;;;;;;;;5.91;100.00;100150.03;5328693;26;20298;-83
2024/04/14 00:09:17;;;;;;;;;;;;;;;5.90;100.00;100154.41;5327834;26;20001;-82
2024/04/14 00:11:42;;;;;;;;;;;;;;;5.96;100.00;100150.81;5297758;26;19930;-81
2024/04/14 00:14:07;;;;;;;;;;;;;;;5.95;100.00;100156.97;5328889;26;19937;-80
2024/04/14 00:16:33;;;;;;;;;;;;;;;5.91;100.00;100155.28;5328523;26;19942;-84
2024/04/14 00:18:58;;;;;;;;;;;;;;;5.94;100.00;100147.34;5328233;26;19934;-81
2024/04/14 00:21:23;;;;;;;;;;;;;;;5.96;100.00;100158.72;5326661;26;20024;-82
2024/04/14 00:23:54;;;;;;;;;;;;;;;5.92;100.00;100151.75;5328672;26;19938;-90
2024/04/14 00:26:19;;;;;;;;;;;;;;;5.93;100.00;100145.59;5326866;26;19945;-88
2024/04/14 00:28:45;;;;;;;;;;;;;;;5.95;100.00;100141.19;5328269;26;20336;-85
2024/04/14 00:31:10;;;;;;;;;;;;;;;5.94;100.00;100136.84;5297430;26;19976;-85
2024/04/14 00:33:35;;;;;;;;;;;;;;;5.94;100.00;100136.84;5297604;26;20369;-84
2024/04/14 00:36:04;;;;;;;;;;;;;;;5.92;100.00;100136.84;5327041;26;19941;-81
2024/04/14 00:38:29;;;;;;;;;;;;;;;5.95;100.00;100135.91;5327668;26;19958;-82
2024/04/14 00:40:55;;;;;;;;;;;;;;;5.94;100.00;100134.19;5328874;26;20001;-79
2024/04/14 00:43:20;;;;;;;;;;;;;;;5.89;100.00;100131.66;5327821;26;20284;-81
2024/04/14 00:45:46;;;;;;;;;;;;;;;5.88;100.00;100129.91;5297654;26;20280;-87
2024/04/14 00:48:12;;;;;;;;;;;;;;;5.87;100.00;100138.72;5298355;26;19930;-90
2024/04/14 00:50:38;;;;;;;;;;;;;;;5.91;100.00;100135.13;5296736;26;19972;-88
2024/04/14 00:53:04;;;;;;;;;;;;;;;5.85;100.00;100137.84;5297484;26;19937;-83
2024/04/14 00:55:33;;;;;;;;;;;;;;;5.88;100.00;100135.16;5327298;26;20063;-85
2024/04/14 07:38:32;;;;;;;;;;;;;;;5.18;100.00;100227.38;5321451;26;19932;-85
2024/04/14 07:40:57;;;;;;;;;;;;;;;5.25;100.00;100230.81;5298852;26;20412;-85
2024/04/14 07:43:22;;;;;;;;;;;;;;;5.23;100.00;100229.97;5329484;26;19981;-85
2024/04/14 07:45:47;;;;;;;;;;;;;;;5.23;100.00;100227.34;5328795;26;19931;-86
2024/04/14 07:48:13;;;;;;;;;;;;;;;5.33;100.00;100231.59;5328573;26;20001;-85
2024/04/14 07:50:44;;;;;;;;;;;;;;;5.28;100.00;100229.00;5327503;26;19936;-85
2024/04/14 07:53:09;;;;;;;;;;;;;;;5.23;100.00;100225.59;5298385;26;19943;-86
2024/04/14 07:55:35;;;;;;;;;;;;;;;5.29;100.00;100232.50;5298298;26;20262;-86
2024/04/14 07:58:00;;;;;;;;;;;;;;;5.25;100.00;100221.19;5329393;26;19937;-85
2024/04/14 08:00:25;;;;;;;;;;;;;;;5.24;100.00;100226.44;5328768;26;20393;-86
2024/04/14 08:02:50;;;;;;;;;;;;;;;5.31;100.00;100222.84;5328359;26;20301;-87
2024/04/14 08:05:16;;;;;;;;;;;;;;;5.27;100.00;100222.00;5327028;26;19941;-82
2024/04/14 08:07:41;;;;;;;;;;;;;;;5.30;100.00;100214.97;5329106;26;19941;-85
2024/04/14 08:10:06;;;;;;;;;;;;;;;5.28;100.00;100222.88;5298781;26;19930;-85
2024/04/14 08:12:32;;;;;;;;;;;;;;;5.39;100.00;100223.63;5328189;26;20001;-85
2024/04/14 08:14:57;;;;;;;;;;;;;;;5.44;100.00;100224.41;5328237;26;19999;-85
2024/04/14 08:17:22;;;;;;;;;;;;;;;5.44;100.00;100223.50;5329288;26;19999;-85
2024/04/14 08:19:49;;;;;;;;;;;;;;;5.37;100.00;100227.16;5325948;26;20292;-84
2024/04/14 08:22:15;;;;;;;;;;;;;;;5.38;100.00;100219.25;5328835;26;20361;-85
2024/04/14 08:24:40;;;;;;;;;;;;;;;5.36;100.00;100228.91;5328365;26;20358;-85
2024/04/14 08:27:05;;;;;;;;;;;;;;;5.32;100.00;100223.72;5328198;26;19942;-85
2024/04/14 08:29:36;;;;;;;;;;;;;;;5.34;100.00;100224.56;5298096;26;19930;-91
2024/04/14 08:32:01;;;;;;;;;;;;;;;5.43;100.00;100229.69;5328050;26;19931;-85
2024/04/14 08:34:26;;;;;;;;;;;;;;;5.39;100.00;100221.00;5327900;26;20368;-85
2024/04/14 08:36:51;;;;;;;;;;;;;;;5.42;100.00;100222.69;5296303;26;20427;-85
2024/04/14 08:39:17;;;;;;;;;;;;;;;5.41;100.00;100229.72;5328484;26;20086;-85
2024/04/14 08:41:43;;;;;;;;;;;;;;;5.37;100.00;100230.63;5327986;26;19935;-84
2024/04/14 08:44:12;;;;;;;;;;;;;;;5.35;100.00;100218.41;5327966;26;19931;-84
2024/04/14 08:46:39;;;;;;;;;;;;;;;5.44;100.00;100223.50;5327669;26;20369;-85
2024/04/14 08:49:04;;;;;;;;;;;;;;;5.42;100.00;100218.28;5327587;26;19981;-89
2024/04/14 08:51:29;;;;;;;;;;;;;;;5.41;100.00;100215.72;5293990;26;19935;-85
2024/04/14 08:53:56;;;;;;;;;;;;;;;5.47;100.00;100215.59;5328409;26;19937;-85
2024/04/14 08:56:23;;;;;;;;;;;;;;;5.42;100.00;100220.91;5327956;26;19938;-85
2024/04/14 08:58:50;;;;;;;;;;;;;;;5.46;100.00;100217.34;5327333;26;19930;-85
2024/04/14 09:01:16;;;;;;;;;;;;;;;5.42;100.00;100214.78;5327295;26;19931;-86
2024/04/14 09:03:41;;;;;;;;;;;;;;;5.42;100.00;100220.06;5327537;26;19930;-85
2024/04/14 09:06:07;;;;;;;;;;;;;;;5.41;100.00;100220.97;5326842;26;19930;-85
2024/04/14 09:08:33;;;;;;;;;;;;;;;5.44;100.00;100223.50;5327861;26;19937;-85
2024/04/14 09:10:58;;;;;;;;;;;;;;;5.52;100.00;100223.41;5327366;26;19942;-85
2024/04/14 09:13:27;;;;;;;;;;;;;;;5.53;100.00;100227.78;5327746;26;20286;-87
2024/04/14 09:15:54;;;;;;;;;;;;;;;5.50;100.00;100227.84;5297045;26;19942;-86
2024/04/14 09:18:19;;;;;;;;;;;;;;;5.45;100.00;100220.88;5327684;26;19930;-84
2024/04/14 09:20:44;;;;;;;;;;;;;;;5.48;100.00;100222.59;5295753;26;19937;-84
2024/04/14 09:23:09;;;;;;;;;;;;;;;5.52;100.00;100226.94;5297573;26;19964;-85
2024/04/14 09:25:35;;;;;;;;;;;;;;;5.55;100.00;100220.72;5297115;26;20478;-85
2024/04/14 09:28:04;;;;;;;;;;;;;;;5.54;100.00;100214.63;5327190;26;19931;-86
2024/04/14 09:30:29;;;;;;;;;;;;;;;5.52;100.00;100219.03;5296601;26;19934;-86
2024/04/14 09:32:56;;;;;;;;;;;;;;;5.54;100.00;100219.03;5327422;26;19979;-85
2024/04/14 09:35:22;;;;;;;;;;;;;;;5.51;100.00;100222.56;5326210;26;19934;-85
2024/04/14 09:37:48;;;;;;;;;;;;;;;5.51;100.00;100214.66;5296553;26;20407;-85
2024/04/14 09:40:16;;;;;;;;;;;;;;;5.52;100.00;100226.94;5326678;26;20556;-85
2024/04/14 09:42:43;;;;;;;;;;;;;;;5.53;100.00;100223.38;5327561;26;19999;-86
2024/04/14 09:45:08;;;;;;;;;;;;;;;5.58;100.00;100218.91;5326222;26;19932;-85
2024/04/14 09:47:36;;;;;;;;;;;;;;;5.49;100.00;100221.72;5326604;26;20264;-86
2024/04/14 09:50:01;;;;;;;;;;;;;;;5.61;100.00;100231.16;5337697;26;20152;-85
2024/04/14 09:52:28;;;;;;;;;;;;;;;5.64;100.00;100228.50;5327127;26;19937;-86
2024/04/14 09:54:54;;;;;;;;;;;;;;;5.56;100.00;100218.09;5296817;26;19953;-85
2024/04/14 09:57:23;;;;;;;;;;;;;;;5.58;100.00;100215.44;5326421;26;20401;-86
2024/04/14 09:59:48;;;;;;;;;;;;;;;5.61;100.00;100216.25;5296512;26;20369;-86
2024/04/14 10:02:20;;;;;;;;;;;;;;;5.62;100.00;100217.13;5298395;26;19942;-86
2024/04/14 12:55:11;;;;;;;;;;;;;;;5.75;100.00;100081.06;5340691;26;19996;-84
2024/04/14 12:57:37;;;;;;;;;;;;;;;5.66;100.00;100078.59;5314385;26;19931;-84
2024/04/14 13:00:02;;;;;;;;;;;;;;;5.70;100.00;100073.25;5344040;26;19940;-79
2024/04/14 13:02:27;;;;;;;;;;;;;;;5.63;100.00;100064.63;5345137;26;19938;-84
2024/04/14 13:04:52;;;;;;;;;;;;;;;5.69;100.00;100060.16;5345351;26;20353;-83
2024/04/14 13:07:18;;;;;;;;;;;;;;;5.70;100.00;100054.00;5342353;26;20052;-86
2024/04/14 13:09:43;;;;;;;;;;;;;;;5.70;100.00;100057.50;5344095;26;19930;-83
2024/04/14 13:12:08;;;;;;;;;;;;;;;5.68;100.00;100055.78;5345039;26;19941;-84
2024/04/14 13:14:35;;;;;;;;;;;;;;;5.74;100.00;100053.88;5344877;26;19938;-85
2024/04/14 13:17:01;;;;;;;;;;;;;;;5.75;100.00;100044.25;5343816;26;20376;-83
2024/04/14 13:19:26;;;;;;;;;;;;;;;5.74;100.00;100039.88;5343922;26;19930;-83
2024/04/14 13:21:51;;;;;;;;;;;;;;;5.75;100.00;100036.38;5343283;26;20265;-82
2024/04/14 13:24:18;;;;;;;;;;;;;;;5.79;100.00;100031.03;5344304;26;19930;-82
2024/04/14 13:26:43;;;;;;;;;;;;;;;5.74;100.00;100030.22;5342212;26;20360;-80
2024/04/14 13:29:08;;;;;;;;;;;;;;;5.77;100.00;100031.94;5342993;26;19929;-85
2024/04/14 13:31:33;;;;;;;;;;;;;;;5.74;100.00;100027.59;5343588;26;19937;-79
2024/04/14 13:33:58;;;;;;;;;;;;;;;5.71;100.00;100016.28;5344444;26;19930;-84
2024/04/14 13:36:24;;;;;;;;;;;;;;;5.69;100.00;100020.72;5344151;26;19930;-79
2024/04/14 13:38:50;;;;;;;;;;;;;;;5.69;100.00;100011.03;5346418;26;19942;-79
2024/04/14 13:41:15;;;;;;;;;;;;;;;5.69;100.00;100010.19;5347956;26;19934;-83
2024/04/14 13:43:41;;;;;;;;;;;;;;;5.73;100.00;100015.38;5346915;26;19941;-79
2024/04/14 13:46:06;;;;;;;;;;;;;;;5.75;100.00;100010.06;5346269;26;19974;-86
2024/04/14 13:48:31;;;;;;;;;;;;;;;5.75;100.00;100000.41;5347365;26;19930;-78
2024/04/14 13:50:57;;;;;;;;;;;;;;;5.71;100.00;99997.88;5343118;26;19934;-76
2024/04/14 13:53:22;;;;;;;;;;;;;;;5.74;100.00;100000.44;5346430;26;20000;-83
2024/04/14 13:55:47;;;;;;;;;;;;;;;5.69;100.00;99991.78;5346020;26;19930;-81
2024/04/14 13:58:14;;;;;;;;;;;;;;;5.65;100.00;99996.25;5345856;26;19980;-78
2024/04/14 14:00:41;;;;;;;;;;;;;;;5.74;100.00;99990.78;5347865;26;19930;-82
2024/04/14 14:03:07;;;;;;;;;;;;;;;5.72;100.00;99989.94;5345582;26;19930;-81
2024/04/14 14:05:32;;;;;;;;;;;;;;;5.70;100.00;99983.00;5346272;26;19983;-87
2024/04/14 14:07:57;;;;;;;;;;;;;;;5.72;100.00;99975.94;5344570;26;19930;-77
2024/04/14 14:10:23;;;;;;;;;;;;;;;5.66;100.00;99973.44;5344956;26;20369;-82
2024/04/14 14:12:49;;;;;;;;;;;;;;;5.68;100.00;99969.00;5345457;26;20000;-84
2024/04/14 14:15:15;;;;;;;;;;;;;;;5.71;100.00;99959.31;5346923;26;20332;-79
2024/04/14 14:17:40;;;;;;;;;;;;;;;5.69;100.00;99960.22;5345095;26;19961;-79
2024/04/14 14:20:06;;;;;;;;;;;;;;;5.73;100.00;99956.66;5343483;26;19957;-79
2024/04/14 14:22:31;;;;;;;;;;;;;;;5.77;100.00;99953.06;5343146;26;19934;-78
2024/04/14 14:24:57;;;;;;;;;;;;;;;5.73;100.00;99947.00;5346897;26;19990;-80
2024/04/14 14:27:22;;;;;;;;;;;;;;;5.72;100.00;99940.00;5344897;26;19930;-86
2024/04/14 14:29:49;;;;;;;;;;;;;;;5.77;100.00;99940.75;5346097;26;20373;-78
2024/04/14 14:32:15;;;;;;;;;;;;;;;5.72;100.00;99937.38;5345190;26;19980;-79
2024/04/14 14:37:24;;;;;;;;;;;;;;;5.72;100.00;99933.88;5319226;26;20000;-80
2024/04/14 14:39:51;;;;;;;;;;;;;;;5.72;100.00;99931.25;5345079;26;19941;-82
2024/04/14 14:42:16;;;;;;;;;;;;;;;5.72;100.00;99933.88;5346745;26;19930;-82
2024/04/14 14:44:41;;;;;;;;;;;;;;;5.76;100.00;99925.91;5345468;26;19930;-83
2024/04/14 14:47:07;;;;;;;;;;;;;;;5.85;100.00;99916.09;5346558;26;20357;-79
2024/04/14 14:49:32;;;;;;;;;;;;;;;5.79;100.00;99910.06;5346960;26;20272;-79
2024/04/14 14:51:57;;;;;;;;;;;;;;;5.82;100.00;99912.63;5311839;26;19930;-81
2024/04/14 14:54:23;;;;;;;;;;;;;;;5.81;100.00;99923.19;5343680;26;19934;-77
2024/04/14 14:56:48;;;;;;;;;;;;;;;5.82;100.00;99909.13;5302630;26;19930;-82
2024/04/14 14:59:15;;;;;;;;;;;;;;;5.80;100.00;99917.03;5345003;26;19937;-78
2024/04/14 15:01:40;;;;;;;;;;;;;;;5.81;100.00;99907.41;5345158;26;19929;-81
2024/04/14 15:04:06;;;;;;;;;;;;;;;5.87;100.00;99901.13;5346425;26;19949;-78
2024/04/14 15:06:31;;;;;;;;;;;;;;;5.83;100.00;99900.34;5341885;26;19946;-79
2024/04/14 15:08:56;;;;;;;;;;;;;;;5.76;100.00;99896.09;5344783;26;20323;-78
2024/04/14 15:11:22;;;;;;;;;;;;;;;5.78;100.00;99889.91;5345810;26;20000;-79
2024/04/14 15:13:49;;;;;;;;;;;;;;;5.79;100.00;99886.41;5344777;26;19934;-84
2024/04/14 15:16:15;;;;;;;;;;;;;;;5.78;100.00;99881.16;5345489;26;19931;-85
2024/04/14 15:18:40;;;;;;;;;;;;;;;5.79;100.00;99886.41;5343390;26;19945;-81
2024/04/14 15:21:05;;;;;;;;;;;;;;;5.83;100.00;99885.41;5315481;26;19930;-83
2024/04/14 15:23:30;;;;;;;;;;;;;;;5.80;100.00;99882.00;5342070;26;19930;-78
2024/04/14 15:25:56;;;;;;;;;;;;;;;5.78;100.00;99879.41;5344906;26;19930;-80
2024/04/14 15:28:21;;;;;;;;;;;;;;;5.76;100.00;99873.31;5346036;26;19980;-78
2024/04/14 15:30:46;;;;;;;;;;;;;;;5.80;100.00;99872.31;5344774;26;20236;-77
2024/04/14 15:33:11;;;;;;;;;;;;;;;5.85;100.00;99869.59;5346003;26;19933;-78
2024/04/14 15:35:37;;;;;;;;;;;;;;;5.89;100.00;99871.28;5345625;26;19938;-76
2024/04/14 15:38:02;;;;;;;;;;;;;;;5.81;100.00;99867.97;5314345;26;19942;-78
2024/04/14 15:40:31;;;;;;;;;;;;;;;5.77;100.00;99863.66;5315802;26;19930;-81
2024/04/14 15:42:56;;;;;;;;;;;;;;;5.82;100.00;99846.88;5313354;26;19930;-80
2024/04/14 15:45:21;;;;;;;;;;;;;;;5.80;100.00;99856.56;5344475;26;19999;-81
2024/04/14 15:47:47;;;;;;;;;;;;;;;5.81;100.00;99852.19;5346042;26;20277;-81
2024/04/14 15:50:12;;;;;;;;;;;;;;;5.79;100.00;99856.59;5313509;26;20001;-81
2024/04/14 15:52:37;;;;;;;;;;;;;;;5.77;100.00;99853.13;5343296;26;19938;-85
2024/04/14 15:55:03;;;;;;;;;;;;;;;5.83;100.00;99847.75;5341500;26;19929;-83
2024/04/14 15:57:29;;;;;;;;;;;;;;;5.78;100.00;99842.59;5345177;26;19942;-77
2024/04/14 15:59:54;;;;;;;;;;;;;;;5.73;100.00;99839.19;5344033;26;19930;-80
2024/04/14 16:02:19;;;;;;;;;;;;;;;5.80;100.00;99839.91;5344816;26;19930;-79
2024/04/14 16:04:45;;;;;;;;;;;;;;;5.81;100.00;99834.63;5345115;26;19958;-79
2024/04/14 16:07:10;;;;;;;;;;;;;;;5.76;100.00;99833.88;5344373;26;19940;-85
2024/04/14 16:09:35;;;;;;;;;;;;;;;5.76;100.00;99831.25;5342545;26;19930;-81
2024/04/14 16:12:01;;;;;;;;;;;;;;;5.82;100.00;99832.84;5344660;26;19934;-78
2024/04/14 16:14:26;;;;;;;;;;;;;;;5.82;100.00;99832.84;5344683;26;20265;-81
2024/04/14 16:16:51;;;;;;;;;;;;;;;5.82;100.00;99822.34;5344263;26;19937;-82
2024/04/14 16:19:17;;;;;;;;;;;;;;;5.75;100.00;99824.25;5344141;26;19929;-80
2024/04/14 16:21:42;;;;;;;;;;;;;;;5.81;100.00;99823.25;5313807;26;19938;-81
2024/04/14 16:24:08;;;;;;;;;;;;;;;5.82;100.00;99819.69;5313521;26;19942;-80
2024/04/14 16:26:34;;;;;;;;;;;;;;;5.79;100.00;99820.66;5342806;26;20452;-82
2024/04/14 16:29:00;;;;;;;;;;;;;;;5.72;100.00;99818.19;5312799;26;20634;-85
2024/04/14 16:31:26;;;;;;;;;;;;;;;5.74;100.00;99819.03;5345234;26;19936;-84
2024/04/14 16:33:51;;;;;;;;;;;;;;;5.78;100.00;99823.31;5344187;26;19941;-83
2024/04/14 16:36:16;;;;;;;;;;;;;;;5.81;100.00;99812.75;5314305;26;19937;-79
2024/04/14 16:38:42;;;;;;;;;;;;;;;5.81;100.00;99813.59;5343093;26;19938;-81
2024/04/14 16:41:09;;;;;;;;;;;;;;;5.81;100.00;99802.22;5344266;26;19942;-82
2024/04/14 16:43:34;;;;;;;;;;;;;;;5.73;100.00;99801.53;5312794;26;19959;-79
2024/04/14 16:45:59;;;;;;;;;;;;;;;5.77;100.00;99801.41;5342997;26;19930;-79
2024/04/14 16:48:24;;;;;;;;;;;;;;;5.86;100.00;99808.22;5343830;26;19937;-78
2024/04/14 16:50:50;;;;;;;;;;;;;;;5.82;100.00;99803.94;5341047;26;19930;-81
2024/04/14 16:53:15;;;;;;;;;;;;;;;5.81;100.00;99803.06;5343418;26;19945;-77
2024/04/14 16:55:40;;;;;;;;;;;;;;;5.81;100.00;99804.84;5343975;26;19966;-78
2024/04/14 16:58:06;;;;;;;;;;;;;;;5.83;100.00;99789.88;5345363;26;20362;-77
2024/04/14 17:00:31;;;;;;;;;;;;;;;5.75;100.00;99792.69;5343768;26;20269;-78
2024/04/14 17:02:59;;;;;;;;;;;;;;;5.74;100.00;99787.47;5343322;26;19938;-82
2024/04/14 17:05:24;;;;;;;;;;;;;;;5.72;100.00;99786.66;5313963;26;19931;-78
2024/04/14 17:07:50;;;;;;;;;;;;;;;5.74;100.00;99790.09;5342434;26;19930;-86
2024/04/14 17:10:15;;;;;;;;;;;;;;;5.76;100.00;99786.53;5337350;26;19958;-85
2024/04/14 17:12:40;;;;;;;;;;;;;;;5.74;100.00;99784.84;5316697;26;20000;-82
2024/04/14 17:15:06;;;;;;;;;;;;;;;5.69;100.00;99782.31;5346175;26;19941;-84
2024/04/14 17:17:32;;;;;;;;;;;;;;;5.72;100.00;99786.66;5346499;26;19930;-82
2024/04/14 17:19:57;;;;;;;;;;;;;;;5.73;100.00;99785.75;5348304;26;19942;-81
2024/04/14 17:22:22;;;;;;;;;;;;;;;5.72;100.00;99782.25;5344273;26;20242;-82
2024/04/14 17:24:47;;;;;;;;;;;;;;;5.70;100.00;99777.94;5344849;26;20323;-83
2024/04/14 17:27:13;;;;;;;;;;;;;;;5.70;100.00;99777.94;5348381;26;19937;-80
2024/04/14 17:29:38;;;;;;;;;;;;;;;5.75;100.00;99776.06;5316555;26;19934;-81
2024/04/14 17:32:03;;;;;;;;;;;;;;;5.73;100.00;99776.09;5347036;26;19930;-85
2024/04/14 17:34:28;;;;;;;;;;;;;;;5.71;100.00;99779.66;5348059;26;19937;-81
2024/04/14 17:36:54;;;;;;;;;;;;;;;5.69;100.00;99765.69;5346756;26;20277;-82
2024/04/14 17:39:19;;;;;;;;;;;;;;;6.29;100.00;99765.13;5317772;26;19936;-83
2024/04/14 17:41:45;;;;;;;;;;;;;;;6.00;100.00;99766.72;5348128;26;20360;-82
2024/04/14 17:44:10;;;;;;;;;;;;;;;5.89;100.00;99762.56;5347852;26;20261;-87
2024/04/14 17:46:38;;;;;;;;;;;;;;;5.86;100.00;99766.16;5348224;26;19938;-85
2024/04/14 17:49:07;;;;;;;;;;;;;;;5.79;100.00;99759.28;5315725;26;19937;-82
2024/04/14 17:51:32;;;;;;;;;;;;;;;5.79;100.00;99759.28;5316271;26;19937;-82
2024/04/14 17:53:58;;;;;;;;;;;;;;;5.78;100.00;99754.97;5310336;27;20266;-83
2024/04/14 17:56:23;;;;;;;;;;;;;;;5.75;100.00;99757.66;5312252;26;20362;-85
2024/04/14 17:58:49;;;;;;;;;;;;;;;13.10;100.00;99747.19;5310836;26;19931;-83
2024/04/14 18:01:14;;;;;;;;;;;;;;;7.98;100.00;99746.16;5304576;27;19946;-83
2024/04/14 18:03:40;;;;;;;;;;;;;;;6.81;100.00;99754.09;5308378;27;19942;-84
2024/04/14 18:06:06;;;;;;;;;;;;;;;6.48;100.00;99746.22;5313344;26;20390;-89
2024/04/14 18:08:31;;;;;;;;;;;;;;;6.33;100.00;99740.47;5310165;26;19930;-82
2024/04/14 18:10:56;;;;;;;;;;;;;;;6.23;100.00;99741.59;5313175;26;19930;-85
2024/04/14 18:13:22;;;;;;;;;;;;;;;6.21;100.00;99735.50;5311675;26;20362;-80
2024/04/14 18:15:47;;;;;;;;;;;;;;;6.17;100.00;99736.47;5312335;26;20393;-84
2024/04/14 18:18:13;;;;;;;;;;;;;;;6.13;100.00;99726.97;5312324;26;19931;-80
2024/04/14 18:20:38;;;;;;;;;;;;;;;6.15;100.00;99722.50;5312930;27;20286;-83
2024/04/14 18:23:06;;;;;;;;;;;;;;;6.09;100.00;99717.41;5310113;27;19939;-85
2024/04/14 18:25:32;;;;;;;;;;;;;;;6.08;100.00;99719.19;5312874;26;19966;-84
2024/04/14 18:27:57;;;;;;;;;;;;;;;6.10;100.00;99724.41;5312327;26;19937;-84
2024/04/14 18:30:22;;;;;;;;;;;;;;;6.12;100.00;99725.22;5312150;26;19937;-84
2024/04/14 18:32:48;;;;;;;;;;;;;;;6.10;100.00;99727.88;5312565;26;19937;-80
2024/04/14 18:35:13;;;;;;;;;;;;;;;6.09;100.00;99722.66;5312317;26;20000;-83
2024/04/14 18:37:38;;;;;;;;;;;;;;;6.09;100.00;99718.25;5311399;26;19931;-81
2024/04/14 18:40:04;;;;;;;;;;;;;;;6.05;100.00;99721.00;5312533;26;19962;-83
2024/04/14 18:42:29;;;;;;;;;;;;;;;6.05;100.00;99721.00;5310891;27;19938;-80
2024/04/14 18:44:54;;;;;;;;;;;;;;;6.00;100.00;99716.75;5310409;27;19930;-82
2024/04/14 18:47:20;;;;;;;;;;;;;;;5.98;100.00;99715.03;5309996;27;19937;-77
2024/04/14 18:49:46;;;;;;;;;;;;;;;5.96;100.00;99712.44;5312089;26;19977;-81
2024/04/14 18:52:11;;;;;;;;;;;;;;;5.94;100.00;99705.47;5310585;26;19937;-80
2024/04/14 18:54:36;;;;;;;;;;;;;;;5.92;100.00;99716.03;5335587;26;20285;-80
2024/04/14 18:57:02;;;;;;;;;;;;;;;5.97;100.00;99714.19;5346335;26;19937;-81
2024/04/14 18:59:27;;;;;;;;;;;;;;;5.97;100.00;99714.19;5346315;26;19980;-82
2024/04/14 19:01:52;;;;;;;;;;;;;;;6.00;100.00;99706.22;5346791;26;19999;-81
2024/04/14 19:04:18;;;;;;;;;;;;;;;5.98;100.00;99702.78;5345047;26;20362;-79
2024/04/14 19:06:43;;;;;;;;;;;;;;;5.96;100.00;99709.81;5345050;26;19930;-76
2024/04/14 19:09:09;;;;;;;;;;;;;;;5.97;100.00;99702.81;5346608;26;19937;-78
2024/04/14 19:11:35;;;;;;;;;;;;;;;5.98;100.00;99705.41;5346452;26;19942;-80
2024/04/14 19:14:01;;;;;;;;;;;;;;;5.97;100.00;99711.56;5346679;26;19930;-78
2024/04/14 19:16:27;;;;;;;;;;;;;;;5.93;100.00;99707.22;5315826;26;20000;-79
2024/04/14 19:18:53;;;;;;;;;;;;;;;5.93;100.00;99707.22;5316052;26;19970;-79
2024/04/14 19:21:18;;;;;;;;;;;;;;;5.96;100.00;99696.66;5315942;26;19930;-82
2024/04/14 19:23:45;;;;;;;;;;;;;;;5.92;100.00;99704.63;5285962;26;19939;-79
2024/04/14 19:26:11;;;;;;;;;;;;;;;5.98;100.00;99699.25;5346263;26;20000;-79
2024/04/14 19:28:37;;;;;;;;;;;;;;;5.94;100.00;99701.06;5346209;26;19934;-83
2024/04/14 19:31:02;;;;;;;;;;;;;;;5.91;100.00;99690.63;5344284;26;19938;-78
2024/04/14 19:33:27;;;;;;;;;;;;;;;5.88;100.00;99693.34;5346125;26;20349;-79
2024/04/14 19:35:53;;;;;;;;;;;;;;;5.89;100.00;99695.06;5314917;26;20496;-79
2024/04/14 19:38:18;;;;;;;;;;;;;;;5.84;100.00;99691.72;5344232;26;20362;-83
2024/04/14 19:40:43;;;;;;;;;;;;;;;5.81;100.00;99691.78;5345804;26;19982;-90
2024/04/14 19:43:08;;;;;;;;;;;;;;;5.82;100.00;99688.22;5346143;26;19930;-79
2024/04/14 19:45:34;;;;;;;;;;;;;;;5.84;100.00;99686.44;5346186;26;19937;-78
2024/04/14 19:47:59;;;;;;;;;;;;;;;5.87;100.00;99677.59;5345832;26;19941;-79
2024/04/14 19:50:26;;;;;;;;;;;;;;;5.81;100.00;99681.25;5287280;26;20004;-79
2024/04/14 19:52:52;;;;;;;;;;;;;;;5.79;100.00;99680.41;5344851;26;20000;-78
2024/04/14 19:55:17;;;;;;;;;;;;;;;5.81;100.00;99686.53;5345724;26;19930;-78
2024/04/14 19:57:43;;;;;;;;;;;;;;;5.81;100.00;99682.13;5346165;26;20264;-82
2024/04/14 20:00:09;;;;;;;;;;;;;;;5.81;100.00;99678.63;5345993;26;19940;-78
2024/04/14 20:02:34;;;;;;;;;;;;;;;5.87;100.00;99675.84;5315333;26;19933;-78
2024/04/14 20:04:59;;;;;;;;;;;;;;;5.89;100.00;99678.41;5345693;26;19940;-78
2024/04/14 20:07:25;;;;;;;;;;;;;;;5.88;100.00;99674.94;5344531;26;19980;-78
2024/04/14 20:09:50;;;;;;;;;;;;;;;5.88;100.00;99674.06;5345774;26;20312;-82
2024/04/14 20:12:15;;;;;;;;;;;;;;;5.86;100.00;99673.25;5345949;26;19931;-81
2024/04/14 20:14:40;;;;;;;;;;;;;;;5.85;100.00;99659.22;5345495;26;20011;-82
2024/04/14 20:17:06;;;;;;;;;;;;;;;5.88;100.00;99656.53;5315093;26;20000;-82
2024/04/14 20:19:31;;;;;;;;;;;;;;;5.84;100.00;99660.16;5345150;26;20263;-80
2024/04/14 20:21:57;;;;;;;;;;;;;;;5.78;100.00;99661.16;5344238;26;19941;-78
2024/04/14 20:24:22;;;;;;;;;;;;;;;5.83;100.00;99659.25;5345329;26;19953;-77
2024/04/14 20:26:47;;;;;;;;;;;;;;;5.82;100.00;99654.03;5345720;26;19958;-78
2024/04/14 20:29:12;;;;;;;;;;;;;;;5.83;100.00;99658.41;5315001;26;19930;-77
2024/04/14 20:31:38;;;;;;;;;;;;;;;5.78;100.00;99655.91;5345376;26;19930;-77
2024/04/14 20:34:03;;;;;;;;;;;;;;;5.81;100.00;99655.81;5345253;26;19946;-78
2024/04/14 20:36:28;;;;;;;;;;;;;;;5.83;100.00;99642.63;5345546;26;19937;-77
2024/04/14 20:38:53;;;;;;;;;;;;;;;5.83;100.00;99642.63;5343704;26;20004;-79
2024/04/14 20:41:20;;;;;;;;;;;;;;;5.82;100.00;99639.16;5345464;26;19937;-79
2024/04/14 20:43:45;;;;;;;;;;;;;;;5.77;100.00;99627.88;5345052;26;19937;-77
2024/04/14 20:46:11;;;;;;;;;;;;;;;5.71;100.00;99632.41;5314530;26;19930;-77
2024/04/14 20:48:37;;;;;;;;;;;;;;;5.77;100.00;99627.00;5345220;26;20307;-83
2024/04/14 20:51:02;;;;;;;;;;;;;;;5.79;100.00;99635.72;5345220;26;19930;-81
2024/04/14 20:53:28;;;;;;;;;;;;;;;5.83;100.00;99634.75;5343435;26;19938;-78
2024/04/14 20:55:54;;;;;;;;;;;;;;;5.78;100.00;99623.50;5314554;26;19934;-83
2024/04/14 20:58:20;;;;;;;;;;;;;;;5.77;100.00;99619.13;5345153;26;20378;-84
2024/04/14 21:00:46;;;;;;;;;;;;;;;5.75;100.00;99613.91;5344670;26;19999;-81
2024/04/14 21:03:12;;;;;;;;;;;;;;;5.77;100.00;99617.34;5345052;26;19942;-80
2024/04/14 21:05:42;;;;;;;;;;;;;;;5.79;100.00;99612.94;5314584;26;19930;-83
2024/04/14 21:08:08;;;;;;;;;;;;;;;5.80;100.00;99609.38;5343751;26;19937;-81
2024/04/14 21:10:34;;;;;;;;;;;;;;;5.79;100.00;99617.31;5344847;26;20466;-80
2024/04/14 21:12:59;;;;;;;;;;;;;;;5.77;100.00;99614.72;5343307;26;20257;-82
2024/04/14 21:15:29;;;;;;;;;;;;;;;5.73;100.00;99609.59;5344558;26;19929;-81
2024/04/14 21:17:54;;;;;;;;;;;;;;;5.75;100.00;99608.66;5344983;26;19937;-84
2024/04/14 21:20:23;;;;;;;;;;;;;;;5.77;100.00;99611.22;5343345;26;19931;-81
2024/04/14 21:22:52;;;;;;;;;;;;;;;5.75;100.00;99618.31;5343401;26;19930;-81
2024/04/14 21:25:17;;;;;;;;;;;;;;;5.74;100.00;99620.06;5344551;26;19930;-82
2024/04/14 21:27:43;;;;;;;;;;;;;;;5.74;100.00;99612.16;5344517;26;20307;-83
2024/04/14 21:30:09;;;;;;;;;;;;;;;5.77;100.00;99613.88;5344487;26;19941;-83
2024/04/14 21:32:35;;;;;;;;;;;;;;;5.70;100.00;99621.06;5344377;26;19930;-81
2024/04/14 21:35:01;;;;;;;;;;;;;;;5.74;100.00;99620.06;5342907;26;20365;-82
2024/04/14 21:37:27;;;;;;;;;;;;;;;5.77;100.00;99616.50;5342756;26;19933;-84
2024/04/14 21:39:54;;;;;;;;;;;;;;;5.69;100.00;99618.47;5344653;26;20049;-81
2024/04/14 21:42:20;;;;;;;;;;;;;;;5.72;100.00;99618.38;5342611;26;19937;-83
2024/04/14 21:44:45;;;;;;;;;;;;;;;5.69;100.00;99619.31;5344106;26;19930;-81
2024/04/14 21:47:10;;;;;;;;;;;;;;;5.72;100.00;99621.00;5344333;26;19930;-80
2024/04/14 21:49:37;;;;;;;;;;;;;;;5.72;100.00;99613.13;5344168;26;19936;-82
2024/04/14 21:52:03;;;;;;;;;;;;;;;5.70;100.00;99620.19;5341652;26;19937;-81
2024/04/14 21:54:28;;;;;;;;;;;;;;;5.70;100.00;99620.19;5343878;26;19930;-83
2024/04/14 21:56:53;;;;;;;;;;;;;;;5.68;100.00;99624.59;5344454;26;19938;-83
2024/04/14 21:59:19;;;;;;;;;;;;;;;5.68;100.00;99627.25;5347389;26;20000;-84
2024/04/14 22:01:45;;;;;;;;;;;;;;;5.68;100.00;99636.00;5347680;26;19938;-83
2024/04/14 22:04:11;;;;;;;;;;;;;;;5.67;100.00;99631.66;5317060;26;20349;-83
2024/04/14 22:06:36;;;;;;;;;;;;;;;5.64;100.00;99632.56;5347640;26;19936;-81
2024/04/14 22:09:01;;;;;;;;;;;;;;;5.67;100.00;99633.41;5315572;26;20336;-83